Time;durP1;ratioP1;P1;durP2;ratioP2;P2;SDS_P1;SDS_P2;PMS_P1;PMS_P2;Temp;Humidity;BMP_temperature;BMP_pressure;BME280_temperature;BME280_humidity;BME280_pressure;Samples;Min_cycle;Max_cycle;Signal;HPM_P1;HPM_P2
2024/01/07 00:01:53;;;;;;;22.87;13.77;;;3.40;45.50;;;;;;5010521;28;20218;-83
2024/01/07 00:04:19;;;;;;;17.93;12.53;;;3.40;45.60;;;;;;5009464;28;20215;-83
2024/01/07 00:06:46;;;;;;;20.77;13.07;;;3.40;45.60;;;;;;5009644;28;20185;-84
2024/01/07 00:09:15;;;;;;;20.70;13.60;;;3.50;45.70;;;;;;4993912;28;20183;-84
2024/01/07 00:11:40;;;;;;;18.63;13.27;;;3.40;45.60;;;;;;5008370;28;20203;-84
2024/01/07 00:14:06;;;;;;;17.10;11.90;;;3.30;45.50;;;;;;5010130;28;20190;-83
2024/01/07 00:16:32;;;;;;;18.60;11.73;;;3.30;45.50;;;;;;5003583;28;20189;-85
2024/01/07 00:18:57;;;;;;;18.33;12.60;;;3.30;45.60;;;;;;4981199;28;20193;-85
2024/01/07 00:21:24;;;;;;;21.47;12.87;;;3.20;45.50;;;;;;5011637;28;20171;-84
2024/01/07 00:23:49;;;;;;;18.73;12.50;;;3.20;45.60;;;;;;4996328;28;20221;-84
2024/01/07 00:26:15;;;;;;;17.30;12.40;;;3.30;45.70;;;;;;5009429;28;20182;-85
2024/01/07 00:28:41;;;;;;;17.80;12.43;;;3.20;45.70;;;;;;5007794;28;20190;-83
2024/01/07 00:31:08;;;;;;;16.03;11.10;;;3.20;45.80;;;;;;4998321;28;20190;-82
2024/01/07 00:33:35;;;;;;;21.33;12.90;;;3.30;45.70;;;;;;5009668;28;20197;-84
2024/01/07 00:36:01;;;;;;;16.53;11.80;;;3.40;45.80;;;;;;5004562;28;20178;-84
2024/01/07 00:38:27;;;;;;;18.80;12.97;;;3.20;45.60;;;;;;4993736;28;20246;-85
2024/01/07 00:40:53;;;;;;;17.43;12.73;;;3.20;45.70;;;;;;5009718;28;20665;-85
2024/01/07 00:43:19;;;;;;;19.37;12.63;;;3.30;45.90;;;;;;4994349;28;20214;-85
2024/01/07 00:45:44;;;;;;;19.37;13.40;;;3.30;45.80;;;;;;4988300;28;20232;-85
2024/01/07 00:48:54;;;;;;;19.47;13.10;;;3.30;45.80;;;;;;4995299;28;20197;-82
2024/01/07 00:51:20;;;;;;;17.93;13.03;;;3.30;45.80;;;;;;5007975;28;20186;-85
2024/01/07 00:53:45;;;;;;;16.17;11.67;;;3.30;45.70;;;;;;4996986;28;20197;-85
2024/01/07 00:56:11;;;;;;;16.60;11.30;;;3.20;45.50;;;;;;5012214;28;20182;-84
2024/01/07 00:58:37;;;;;;;17.80;12.13;;;3.20;45.80;;;;;;4992763;28;20654;-85
2024/01/07 01:01:03;;;;;;;18.30;12.47;;;3.20;45.70;;;;;;4993657;28;20190;-84
2024/01/07 01:03:28;;;;;;;18.87;13.40;;;3.20;45.80;;;;;;4993509;28;20344;-85
2024/01/07 01:05:54;;;;;;;20.70;12.27;;;3.10;45.60;;;;;;4992791;28;20194;-84
2024/01/07 01:08:20;;;;;;;17.80;13.13;;;3.20;45.80;;;;;;4990993;28;20195;-84
2024/01/07 01:10:45;;;;;;;19.40;13.77;;;3.20;45.70;;;;;;5012889;28;20194;-84
2024/01/07 01:13:11;;;;;;;18.37;12.97;;;3.10;45.70;;;;;;4992295;28;20183;-85
2024/01/07 01:15:37;;;;;;;19.87;13.50;;;3.10;45.80;;;;;;4993692;28;20185;-83
2024/01/07 01:18:02;;;;;;;17.47;12.40;;;3.00;45.70;;;;;;5000200;28;20197;-84
2024/01/07 01:20:28;;;;;;;22.67;13.93;;;3.00;45.80;;;;;;5012060;28;20257;-85
2024/01/07 01:22:53;;;;;;;19.47;13.93;;;3.00;45.80;;;;;;4993091;28;20205;-84
2024/01/07 01:25:19;;;;;;;19.70;13.33;;;3.00;45.90;;;;;;5009204;28;20197;-84
2024/01/07 01:27:45;;;;;;;21.60;14.23;;;3.00;45.90;;;;;;4989021;28;20220;-85
2024/01/07 01:30:11;;;;;;;20.30;13.27;;;2.90;46.00;;;;;;4997771;28;20212;-84
2024/01/07 01:32:37;;;;;;;22.20;13.53;;;3.10;46.30;;;;;;5004242;28;20238;-84
2024/01/07 01:35:04;;;;;;;19.50;13.43;;;3.00;46.20;;;;;;5002219;28;20195;-85
2024/01/07 01:37:32;;;;;;;19.90;13.07;;;3.10;46.20;;;;;;5001167;28;20564;-82
2024/01/07 01:39:58;;;;;;;17.63;11.93;;;3.20;46.20;;;;;;5012042;28;20592;-84
2024/01/07 01:42:24;;;;;;;18.83;12.93;;;3.00;46.00;;;;;;4995890;28;20302;-84
2024/01/07 01:44:49;;;;;;;17.20;12.03;;;3.00;46.10;;;;;;4997304;28;20788;-85
2024/01/07 01:47:15;;;;;;;15.30;11.27;;;3.00;46.00;;;;;;4992306;28;20289;-84
2024/01/07 01:49:42;;;;;;;15.03;10.63;;;3.00;46.00;;;;;;5011639;28;20221;-84
2024/01/07 01:52:09;;;;;;;17.27;11.47;;;3.00;45.90;;;;;;5010263;28;20590;-84
2024/01/07 01:54:35;;;;;;;18.87;11.93;;;3.00;46.10;;;;;;4996012;28;20650;-85
2024/01/07 01:57:01;;;;;;;18.67;11.57;;;3.00;46.10;;;;;;4999069;28;20547;-84
2024/01/07 01:59:28;;;;;;;16.10;11.00;;;3.00;46.10;;;;;;5005434;28;20180;-85
2024/01/07 02:01:55;;;;;;;15.03;11.67;;;3.00;46.10;;;;;;4996069;28;20219;-85
2024/01/07 02:04:20;;;;;;;14.43;10.57;;;3.00;46.20;;;;;;5020540;28;20186;-84
2024/01/07 02:06:46;;;;;;;15.53;11.70;;;3.00;46.00;;;;;;4996371;28;20193;-84
2024/01/07 02:09:12;;;;;;;15.83;11.53;;;3.10;46.20;;;;;;5013980;28;20709;-85
2024/01/07 02:11:37;;;;;;;17.13;11.33;;;2.90;45.90;;;;;;4991782;28;20281;-85
2024/01/07 02:14:03;;;;;;;17.47;12.20;;;2.90;45.90;;;;;;4988608;28;20232;-85
2024/01/07 02:16:29;;;;;;;17.43;11.93;;;2.90;46.00;;;;;;4995709;28;20213;-84
2024/01/07 02:18:54;;;;;;;16.03;11.03;;;2.90;46.20;;;;;;5010379;28;20179;-85
2024/01/07 02:21:20;;;;;;;14.90;11.10;;;2.90;46.10;;;;;;4991447;28;20592;-84
2024/01/07 02:23:45;;;;;;;15.13;11.50;;;2.90;46.10;;;;;;5010998;28;20213;-85
2024/01/07 02:26:11;;;;;;;15.83;11.03;;;2.90;46.10;;;;;;5012809;28;20188;-84
2024/01/07 02:28:36;;;;;;;15.00;10.87;;;2.90;46.20;;;;;;5015718;28;20186;-84
2024/01/07 02:31:02;;;;;;;18.30;11.93;;;2.90;46.10;;;;;;5013290;28;20269;-85
2024/01/07 02:33:29;;;;;;;14.83;11.33;;;2.90;46.20;;;;;;5000047;28;20185;-84
2024/01/07 02:35:55;;;;;;;17.17;11.87;;;2.90;46.10;;;;;;5010831;28;20228;-84
2024/01/07 02:38:20;;;;;;;16.53;11.13;;;2.90;46.10;;;;;;5011313;28;20191;-84
2024/01/07 02:44:08;;;;;;;13.57;10.10;;;2.90;46.30;;;;;;5010348;28;20233;-84
2024/01/07 02:46:33;;;;;;;12.50;9.43;;;2.90;46.10;;;;;;5005805;28;20195;-83
2024/01/07 02:48:59;;;;;;;12.60;8.80;;;2.90;46.10;;;;;;5003610;28;20541;-84
2024/01/07 02:51:24;;;;;;;13.47;9.63;;;2.80;46.10;;;;;;4992339;28;20193;-85
2024/01/07 02:53:50;;;;;;;15.33;10.00;;;2.80;46.20;;;;;;4990400;28;20186;-85
2024/01/07 02:56:16;;;;;;;15.90;9.83;;;2.90;46.50;;;;;;5009031;28;20193;-85
2024/01/07 02:58:41;;;;;;;13.50;9.53;;;2.90;46.40;;;;;;4991932;28;20222;-84
2024/01/07 03:01:10;;;;;;;13.47;9.67;;;2.90;46.30;;;;;;5011894;28;20666;-85
2024/01/07 03:03:36;;;;;;;11.67;8.63;;;2.90;46.30;;;;;;4998299;28;20220;-85
2024/01/07 03:06:02;;;;;;;15.73;9.83;;;2.80;46.30;;;;;;5010590;28;20186;-85
2024/01/07 03:08:28;;;;;;;12.03;9.77;;;2.80;46.20;;;;;;5009719;28;20201;-83
2024/01/07 03:10:54;;;;;;;15.53;10.03;;;2.80;46.20;;;;;;5009422;28;20192;-84
2024/01/07 03:13:20;;;;;;;13.50;9.50;;;2.70;46.20;;;;;;5009833;28;20195;-81
2024/01/07 03:15:45;;;;;;;14.80;9.63;;;2.70;46.20;;;;;;4992363;28;20179;-84
2024/01/07 03:18:11;;;;;;;11.83;9.37;;;2.70;46.20;;;;;;5006791;28;20657;-85
2024/01/07 03:20:37;;;;;;;12.73;9.60;;;2.70;46.30;;;;;;5010484;28;20190;-83
2024/01/07 03:23:02;;;;;;;13.83;10.57;;;2.60;46.20;;;;;;5010702;28;20237;-84
2024/01/07 03:25:28;;;;;;;14.13;10.10;;;2.60;46.20;;;;;;4994947;28;20195;-85
2024/01/07 03:27:53;;;;;;;12.90;9.80;;;2.60;46.10;;;;;;5008594;28;20614;-85
2024/01/07 03:30:19;;;;;;;14.77;10.17;;;2.60;46.20;;;;;;5011321;28;20649;-84
2024/01/07 03:32:45;;;;;;;13.90;10.40;;;2.60;46.30;;;;;;4993404;28;20239;-85
2024/01/07 03:35:11;;;;;;;16.17;10.87;;;2.60;46.30;;;;;;4993200;28;20248;-85
2024/01/07 03:37:36;;;;;;;13.70;10.27;;;2.50;46.10;;;;;;4990693;28;20190;-87
2024/01/07 03:40:02;;;;;;;12.57;10.03;;;2.50;46.10;;;;;;5011784;28;20182;-84
2024/01/07 03:42:28;;;;;;;15.23;10.77;;;2.50;46.10;;;;;;4994351;28;20248;-84
2024/01/07 03:44:53;;;;;;;15.37;10.73;;;2.50;46.10;;;;;;5012789;28;20262;-84
2024/01/07 03:47:19;;;;;;;14.73;11.03;;;2.40;46.10;;;;;;5014047;28;20192;-83
2024/01/07 03:49:44;;;;;;;14.10;10.77;;;2.40;46.20;;;;;;4991369;28;20191;-83
2024/01/07 03:52:10;;;;;;;12.83;10.43;;;2.50;46.30;;;;;;5006696;28;20239;-85
2024/01/07 03:54:36;;;;;;;14.50;10.93;;;2.40;46.10;;;;;;4993439;28;20190;-83
2024/01/07 03:57:01;;;;;;;14.03;10.53;;;2.40;46.10;;;;;;4993648;28;20180;-84
2024/01/07 03:59:28;;;;;;;15.57;11.30;;;2.50;46.30;;;;;;4987742;28;20537;-85
2024/01/07 04:01:55;;;;;;;16.67;10.87;;;2.30;46.20;;;;;;5003182;28;20182;-84
2024/01/07 04:04:21;;;;;;;15.50;10.97;;;2.30;46.20;;;;;;4996150;28;20180;-85
2024/01/07 04:06:47;;;;;;;12.80;10.27;;;2.40;46.30;;;;;;4995993;28;20185;-85
2024/01/07 04:09:12;;;;;;;14.13;10.77;;;2.30;46.20;;;;;;5010468;28;20184;-85
2024/01/07 04:11:42;;;;;;;17.53;11.27;;;2.30;46.10;;;;;;4990976;28;20246;-85
2024/01/07 04:14:08;;;;;;;14.33;10.97;;;2.30;46.20;;;;;;4987737;28;20198;-85
2024/01/07 04:16:34;;;;;;;18.13;11.13;;;2.30;46.10;;;;;;5006540;28;20214;-85
2024/01/07 04:19:00;;;;;;;17.07;10.83;;;2.30;46.10;;;;;;4995683;28;20222;-84
2024/01/07 04:21:25;;;;;;;12.93;9.97;;;2.20;46.10;;;;;;5010754;28;20281;-83
2024/01/07 04:23:51;;;;;;;12.53;10.30;;;2.30;46.20;;;;;;5009874;28;20214;-85
2024/01/07 04:26:17;;;;;;;15.83;10.67;;;2.20;46.10;;;;;;4994175;28;20651;-85
2024/01/07 04:28:43;;;;;;;16.90;11.50;;;2.20;46.10;;;;;;5000222;28;20274;-84
2024/01/07 04:31:09;;;;;;;13.73;10.73;;;2.20;46.20;;;;;;5012333;28;20197;-84
2024/01/07 04:33:34;;;;;;;15.70;10.47;;;2.20;46.30;;;;;;4989145;28;20237;-84
2024/01/07 04:36:00;;;;;;;14.90;10.63;;;2.20;46.20;;;;;;4997808;28;20890;-84
2024/01/07 04:38:26;;;;;;;13.37;10.40;;;2.20;46.20;;;;;;5011578;28;20186;-85
2024/01/07 04:40:52;;;;;;;15.63;11.53;;;2.20;46.70;;;;;;5010830;28;20652;-84
2024/01/07 04:43:21;;;;;;;13.47;10.33;;;2.30;46.30;;;;;;4998653;28;20227;-84
2024/01/07 04:45:46;;;;;;;13.93;10.90;;;2.20;46.30;;;;;;4987982;28;20230;-85
2024/01/07 04:48:13;;;;;;;16.50;11.57;;;2.20;46.20;;;;;;5006486;28;20269;-84
2024/01/07 04:50:41;;;;;;;15.47;10.87;;;2.20;46.10;;;;;;5010844;28;20201;-85
2024/01/07 04:53:07;;;;;;;15.70;10.83;;;2.30;46.40;;;;;;5007488;28;20937;-85
2024/01/07 04:55:33;;;;;;;12.83;9.90;;;2.20;46.20;;;;;;4993318;28;20200;-85
2024/01/07 04:57:59;;;;;;;13.10;9.57;;;2.20;46.10;;;;;;5004729;28;20185;-84
2024/01/07 05:00:24;;;;;;;13.57;10.40;;;2.20;46.10;;;;;;4999101;28;20194;-85
2024/01/07 05:02:50;;;;;;;15.93;10.37;;;2.20;46.20;;;;;;5009471;28;20826;-85
2024/01/07 05:05:15;;;;;;;13.20;10.70;;;2.40;46.30;;;;;;4986545;28;20192;-85
2024/01/07 05:07:41;;;;;;;14.83;10.70;;;2.20;46.20;;;;;;5014796;28;20194;-87
2024/01/07 05:10:07;;;;;;;14.30;10.47;;;2.30;46.20;;;;;;5011709;28;20202;-82
2024/01/07 05:12:33;;;;;;;13.00;9.73;;;2.20;46.10;;;;;;5019490;28;20267;-83
2024/01/07 05:14:59;;;;;;;14.77;10.33;;;2.20;46.00;;;;;;5003893;28;20195;-84
2024/01/07 05:17:24;;;;;;;13.50;10.33;;;2.20;46.00;;;;;;4996783;28;20196;-84
2024/01/07 05:19:50;;;;;;;13.93;10.57;;;2.20;46.10;;;;;;5015297;28;20185;-84
2024/01/07 05:22:15;;;;;;;14.47;9.57;;;2.20;46.00;;;;;;5003563;28;20697;-85
2024/01/07 05:24:41;;;;;;;16.47;10.90;;;2.30;46.00;;;;;;5018863;28;20197;-84
2024/01/07 05:27:07;;;;;;;14.47;10.23;;;2.20;45.90;;;;;;4999469;28;20200;-85
2024/01/07 05:29:35;;;;;;;14.83;10.53;;;2.20;45.90;;;;;;5015476;28;20195;-85
2024/01/07 05:32:02;;;;;;;15.40;10.97;;;2.20;46.00;;;;;;5012871;28;20236;-84
2024/01/07 05:34:28;;;;;;;15.53;10.70;;;2.20;46.00;;;;;;5014143;28;20236;-84
2024/01/07 05:36:54;;;;;;;14.27;10.57;;;2.20;46.10;;;;;;4998735;28;20172;-84
2024/01/07 05:39:19;;;;;;;12.50;9.90;;;2.20;46.60;;;;;;5004067;28;20185;-84
2024/01/07 05:41:45;;;;;;;13.80;10.23;;;2.20;45.90;;;;;;4993944;28;20193;-85
2024/01/07 05:44:12;;;;;;;12.53;9.77;;;2.20;45.70;;;;;;5004179;28;20756;-85
2024/01/07 05:46:40;;;;;;;12.63;9.87;;;2.20;45.80;;;;;;4999646;28;20184;-85
2024/01/07 05:49:06;;;;;;;15.03;11.10;;;2.10;45.70;;;;;;4996546;28;20212;-85
2024/01/07 05:51:32;;;;;;;13.43;9.93;;;2.10;46.20;;;;;;4998634;28;20190;-85
2024/01/07 05:53:58;;;;;;;15.97;10.77;;;2.10;45.70;;;;;;5010994;28;20199;-85
2024/01/07 05:56:23;;;;;;;14.20;10.83;;;2.10;45.90;;;;;;5005432;28;20567;-84
2024/01/07 05:58:49;;;;;;;13.23;10.27;;;2.00;45.70;;;;;;4991573;28;20228;-83
2024/01/07 06:01:19;;;;;;;13.50;10.67;;;2.00;45.80;;;;;;4994638;28;20231;-85
2024/01/07 06:03:47;;;;;;;11.73;9.77;;;2.00;45.90;;;;;;4999215;28;20595;-84
2024/01/07 06:06:14;;;;;;;13.07;9.73;;;2.00;46.00;;;;;;5012115;28;20208;-85
2024/01/07 06:08:41;;;;;;;13.93;10.43;;;2.20;46.20;;;;;;5010839;28;20200;-84
2024/01/07 06:11:06;;;;;;;15.37;10.67;;;2.10;45.90;;;;;;5013716;28;20344;-84
2024/01/07 06:13:32;;;;;;;14.43;10.37;;;2.00;45.60;;;;;;5016811;28;20693;-84
2024/01/07 06:15:58;;;;;;;15.33;9.80;;;2.00;45.70;;;;;;4994836;28;20182;-84
2024/01/07 06:18:23;;;;;;;15.40;11.17;;;2.10;45.80;;;;;;4996330;28;20221;-84
2024/01/07 06:20:49;;;;;;;15.13;10.73;;;2.00;45.80;;;;;;4996189;28;20183;-85
2024/01/07 06:23:14;;;;;;;13.50;10.53;;;2.00;45.70;;;;;;5010877;28;20225;-84
2024/01/07 06:25:40;;;;;;;14.13;10.17;;;2.00;45.60;;;;;;4995575;28;20189;-86
2024/01/07 06:28:07;;;;;;;12.73;9.80;;;1.90;45.60;;;;;;4992383;28;20178;-85
2024/01/07 06:30:33;;;;;;;16.20;10.33;;;1.90;45.50;;;;;;4993812;28;20275;-84
2024/01/07 06:32:59;;;;;;;16.17;10.30;;;2.10;45.70;;;;;;4994683;28;20219;-85
2024/01/07 06:35:24;;;;;;;14.33;10.57;;;1.90;45.60;;;;;;4995837;28;20217;-85
2024/01/07 06:37:51;;;;;;;13.37;10.83;;;1.90;45.60;;;;;;5003195;28;20189;-85
2024/01/07 06:40:16;;;;;;;16.37;11.43;;;1.90;45.60;;;;;;4996586;28;20181;-85
2024/01/07 06:42:43;;;;;;;12.80;10.17;;;1.90;45.50;;;;;;4995351;28;20212;-85
2024/01/07 06:45:09;;;;;;;13.50;10.20;;;2.00;45.50;;;;;;4996022;28;20271;-85
2024/01/07 06:47:35;;;;;;;12.80;9.57;;;1.90;45.50;;;;;;4992020;28;20197;-85
2024/01/07 06:50:00;;;;;;;13.10;10.10;;;1.90;45.60;;;;;;4995121;28;20173;-84
2024/01/07 06:52:26;;;;;;;13.87;10.30;;;1.90;45.50;;;;;;4996343;28;20181;-85
2024/01/07 06:54:51;;;;;;;13.10;9.83;;;1.90;45.50;;;;;;5001086;28;20195;-84
2024/01/07 06:57:17;;;;;;;13.80;9.67;;;1.90;45.40;;;;;;5011964;28;20180;-86
2024/01/07 06:59:42;;;;;;;14.60;9.57;;;1.90;45.20;;;;;;5009576;28;20235;-85
2024/01/07 07:02:08;;;;;;;14.43;11.27;;;1.90;45.30;;;;;;5002904;28;20213;-84
2024/01/07 07:04:34;;;;;;;14.63;10.40;;;1.90;45.40;;;;;;5008499;28;20184;-85
2024/01/07 07:07:00;;;;;;;15.53;10.33;;;1.80;45.30;;;;;;4996203;28;20196;-84
2024/01/07 07:09:25;;;;;;;13.03;10.00;;;1.80;45.50;;;;;;5010895;28;20190;-84
2024/01/07 07:11:51;;;;;;;16.93;11.03;;;1.90;45.70;;;;;;5007650;28;20181;-84
2024/01/07 07:14:17;;;;;;;13.57;11.13;;;1.90;45.60;;;;;;5002703;28;20538;-84
2024/01/07 07:16:42;;;;;;;14.57;10.53;;;1.90;45.50;;;;;;4995438;28;20190;-85
2024/01/07 07:19:08;;;;;;;14.27;10.93;;;1.90;45.50;;;;;;4986771;28;20212;-85
2024/01/07 07:21:33;;;;;;;14.40;11.03;;;1.90;45.80;;;;;;4993067;28;20187;-85
2024/01/07 07:23:59;;;;;;;16.73;10.83;;;2.00;45.70;;;;;;5011602;28;20747;-85
2024/01/07 07:26:24;;;;;;;13.17;10.20;;;2.00;45.60;;;;;;4994304;28;20206;-83
2024/01/07 07:28:50;;;;;;;14.33;10.97;;;2.00;45.50;;;;;;5006387;28;20276;-85
2024/01/07 07:31:16;;;;;;;15.50;11.67;;;1.90;45.30;;;;;;4999014;28;20181;-85
2024/01/07 07:37:04;;;;;;;16.70;11.07;;;1.90;45.60;;;;;;5006638;28;20205;-85
2024/01/07 07:39:29;;;;;;;14.77;10.13;;;2.00;45.60;;;;;;5008769;28;20647;-85
2024/01/07 07:41:55;;;;;;;14.70;11.23;;;1.90;45.50;;;;;;4994979;28;20189;-85
2024/01/07 07:44:21;;;;;;;12.93;10.07;;;1.90;45.50;;;;;;5003681;28;20628;-85
2024/01/07 07:46:46;;;;;;;15.47;10.43;;;1.90;45.40;;;;;;5012226;28;20190;-84
2024/01/07 07:49:12;;;;;;;16.17;11.33;;;1.90;45.40;;;;;;5000913;28;20245;-86
2024/01/07 07:51:38;;;;;;;15.93;10.53;;;1.90;45.50;;;;;;4996679;28;20232;-85
2024/01/07 07:54:04;;;;;;;16.67;10.87;;;1.90;45.60;;;;;;4991263;28;20677;-85
2024/01/07 07:56:29;;;;;;;16.60;11.03;;;1.90;45.70;;;;;;4987757;28;20186;-85
2024/01/07 07:58:55;;;;;;;12.63;9.93;;;2.00;45.70;;;;;;4992139;28;20186;-85
2024/01/07 08:01:21;;;;;;;15.03;10.03;;;2.10;45.70;;;;;;4995653;28;20278;-85
2024/01/07 08:03:46;;;;;;;14.77;10.87;;;2.00;45.60;;;;;;5016612;28;20803;-85
2024/01/07 08:06:12;;;;;;;13.23;9.80;;;2.00;45.60;;;;;;5018389;28;20221;-85
2024/01/07 08:08:37;;;;;;;14.17;10.30;;;2.00;45.50;;;;;;4986372;28;20256;-85
2024/01/07 08:11:07;;;;;;;15.37;11.23;;;2.00;45.50;;;;;;5019028;28;21246;-85
2024/01/07 08:13:35;;;;;;;16.93;11.57;;;2.00;45.60;;;;;;5006962;28;20185;-84
2024/01/07 08:16:00;;;;;;;14.67;11.03;;;2.10;45.80;;;;;;5007894;28;20214;-85
2024/01/07 08:18:26;;;;;;;13.83;11.47;;;2.10;45.60;;;;;;5010397;28;20227;-84
2024/01/07 08:20:51;;;;;;;14.77;11.50;;;2.20;45.60;;;;;;5001113;28;20186;-85
2024/01/07 08:23:17;;;;;;;12.97;10.50;;;2.10;45.60;;;;;;4987980;28;20267;-85
2024/01/07 08:25:44;;;;;;;15.27;10.87;;;2.10;45.70;;;;;;4990641;28;20268;-85
2024/01/07 08:28:10;;;;;;;13.57;10.27;;;2.30;45.80;;;;;;5006328;28;20212;-85
2024/01/07 08:30:36;;;;;;;14.10;10.40;;;2.20;45.70;;;;;;4990647;28;20833;-85
2024/01/07 08:33:01;;;;;;;12.97;10.17;;;2.20;45.80;;;;;;4987784;28;20247;-84
2024/01/07 08:35:27;;;;;;;14.47;10.83;;;2.20;45.50;;;;;;5005975;28;20600;-84
2024/01/07 08:37:52;;;;;;;15.63;10.93;;;2.20;45.60;;;;;;5001700;28;20205;-84
2024/01/07 08:40:18;;;;;;;17.60;10.67;;;2.20;45.60;;;;;;4990965;28;20193;-84
2024/01/07 08:42:44;;;;;;;13.93;11.43;;;2.30;45.60;;;;;;4990149;28;20206;-85
2024/01/07 08:45:11;;;;;;;12.40;10.47;;;2.40;45.80;;;;;;4987386;28;20313;-84
2024/01/07 08:47:39;;;;;;;15.03;11.20;;;2.40;45.80;;;;;;4988074;28;20212;-84
2024/01/07 08:50:05;;;;;;;11.93;9.33;;;2.40;45.70;;;;;;5000357;28;20265;-85
2024/01/07 08:52:31;;;;;;;13.00;9.93;;;2.50;45.70;;;;;;4985074;28;20284;-86
2024/01/07 08:54:56;;;;;;;11.37;9.77;;;2.50;45.60;;;;;;5003726;28;20189;-84
2024/01/07 08:57:22;;;;;;;11.57;9.40;;;2.50;45.50;;;;;;4990146;28;20198;-86
2024/01/07 08:59:48;;;;;;;14.27;10.37;;;2.50;45.60;;;;;;4985938;28;20178;-89
2024/01/07 09:02:13;;;;;;;13.90;10.50;;;2.50;45.60;;;;;;4983284;28;20217;-87
2024/01/07 09:04:39;;;;;;;14.70;10.33;;;2.60;45.60;;;;;;4993128;28;20182;-87
2024/01/07 09:07:05;;;;;;;13.23;10.20;;;2.70;45.50;;;;;;4985570;28;20223;-88
2024/01/07 09:09:30;;;;;;;12.17;9.53;;;2.60;45.30;;;;;;4994689;28;20549;-87
2024/01/07 09:11:57;;;;;;;11.50;9.77;;;2.70;45.50;;;;;;5004259;28;20186;-88
2024/01/07 09:14:25;;;;;;;10.63;8.73;;;2.60;45.30;;;;;;4991096;28;20177;-88
2024/01/07 09:16:50;;;;;;;9.90;8.63;;;2.60;45.30;;;;;;4990830;28;20213;-89
2024/01/07 09:19:17;;;;;;;12.03;9.27;;;2.60;45.30;;;;;;5003987;28;20233;-89
2024/01/07 09:21:43;;;;;;;12.77;9.57;;;2.60;45.20;;;;;;4988052;28;20186;-88
2024/01/07 09:24:09;;;;;;;10.80;8.70;;;2.60;45.00;;;;;;4990308;28;20725;-83
2024/01/07 09:26:34;;;;;;;12.80;8.60;;;2.60;45.00;;;;;;5005222;28;20270;-84
2024/01/07 09:29:01;;;;;;;12.57;9.47;;;2.60;45.00;;;;;;4989867;28;21916;-85
2024/01/07 09:31:27;;;;;;;15.73;11.17;;;2.60;45.00;;;;;;5007527;28;20703;-86
2024/01/07 09:33:52;;;;;;;13.93;10.70;;;2.60;44.90;;;;;;5003054;28;20206;-86
2024/01/07 09:36:18;;;;;;;166.77;60.90;;;2.60;44.70;;;;;;4990823;28;20224;-85
2024/01/07 09:38:44;;;;;;;104.53;47.57;;;2.60;44.80;;;;;;4989142;28;20197;-86
2024/01/07 09:41:09;;;;;;;59.63;35.13;;;2.70;44.90;;;;;;5004296;28;20548;-85
2024/01/07 09:43:35;;;;;;;20.93;14.93;;;2.50;44.70;;;;;;4995766;28;20236;-84
2024/01/07 09:46:02;;;;;;;62.27;39.23;;;2.50;44.90;;;;;;5004228;28;20189;-85
2024/01/07 09:48:28;;;;;;;97.63;58.10;;;2.50;44.80;;;;;;5010845;28;20298;-83
2024/01/07 09:50:55;;;;;;;55.50;37.53;;;2.50;45.00;;;;;;5001708;28;20560;-85
2024/01/07 09:53:26;;;;;;;26.77;19.23;;;2.40;44.80;;;;;;5001279;28;20441;-84
2024/01/07 09:56:20;;;;;;;33.03;24.13;;;2.40;44.90;;;;;;4997387;28;20186;-85
2024/01/07 09:58:49;;;;;;;29.73;25.30;;;2.40;45.00;;;;;;5013639;28;20189;-85
2024/01/07 10:01:18;;;;;;;30.00;26.77;;;2.40;44.90;;;;;;5013710;28;20187;-85
2024/01/07 10:03:44;;;;;;;17.13;13.63;;;2.40;45.00;;;;;;5001632;28;20226;-86
2024/01/07 10:06:13;;;;;;;13.93;11.10;;;2.40;45.10;;;;;;4983598;28;20185;-85
2024/01/07 10:08:39;;;;;;;11.70;9.90;;;2.50;45.00;;;;;;4993820;28;22108;-84
2024/01/07 10:11:05;;;;;;;14.80;10.77;;;2.40;44.80;;;;;;4987305;28;20198;-85
2024/01/07 10:13:32;;;;;;;13.00;11.03;;;2.40;44.90;;;;;;4993084;28;20252;-85
2024/01/07 10:15:57;;;;;;;15.00;11.63;;;2.40;45.10;;;;;;5007382;28;20191;-84
2024/01/07 10:18:24;;;;;;;15.07;10.77;;;2.40;45.10;;;;;;4994473;28;20194;-84
2024/01/07 10:20:50;;;;;;;13.43;10.80;;;2.40;45.10;;;;;;4989363;28;20787;-84
2024/01/07 10:23:19;;;;;;;13.67;9.97;;;2.40;45.00;;;;;;4991908;28;20210;-85
2024/01/07 10:25:45;;;;;;;15.90;11.43;;;2.40;45.00;;;;;;4996725;28;20315;-85
2024/01/07 10:28:11;;;;;;;16.50;11.13;;;2.40;45.00;;;;;;4993216;28;20648;-84
2024/01/07 10:30:40;;;;;;;13.80;10.60;;;2.60;45.10;;;;;;4994194;28;20297;-84
2024/01/07 10:33:07;;;;;;;14.50;10.90;;;2.40;45.00;;;;;;5009616;28;20213;-84
2024/01/07 10:35:34;;;;;;;16.33;11.20;;;2.50;45.00;;;;;;4991906;28;20226;-84
2024/01/07 10:38:01;;;;;;;16.73;12.70;;;2.50;44.90;;;;;;4995771;28;20288;-86
2024/01/07 10:40:29;;;;;;;12.90;10.43;;;2.50;44.90;;;;;;5011051;28;20197;-86
2024/01/07 10:42:55;;;;;;;12.27;9.73;;;2.60;45.20;;;;;;4998693;28;20752;-84
2024/01/07 10:45:22;;;;;;;15.47;11.40;;;2.50;45.00;;;;;;4989904;28;20271;-85
2024/01/07 10:47:55;;;;;;;16.13;12.67;;;2.50;44.90;;;;;;5010942;28;20222;-85
2024/01/07 10:50:21;;;;;;;15.70;12.23;;;2.50;44.90;;;;;;4992637;28;20284;-85
2024/01/07 10:52:57;;;;;;;16.97;12.03;;;2.50;44.90;;;;;;4992632;28;20196;-86
2024/01/07 10:55:26;;;;;;;16.00;12.63;;;2.50;45.00;;;;;;4989756;28;20734;-85
2024/01/07 10:57:56;;;;;;;17.13;13.10;;;2.50;45.10;;;;;;5002333;28;20423;-85
2024/01/07 11:00:23;;;;;;;16.93;13.73;;;2.50;44.90;;;;;;4988514;28;20192;-85
2024/01/07 11:03:27;;;;;;;18.80;15.20;;;2.50;44.90;;;;;;4984831;28;20220;-85
2024/01/07 11:06:02;;;;;;;17.70;14.13;;;2.50;44.90;;;;;;4991113;28;20271;-84
2024/01/07 11:08:36;;;;;;;14.93;11.50;;;2.40;44.70;;;;;;4993116;28;20196;-83
2024/01/07 11:11:16;;;;;;;17.60;13.40;;;2.40;44.70;;;;;;5004733;28;20557;-85
2024/01/07 11:13:41;;;;;;;19.37;12.80;;;2.40;44.90;;;;;;4999157;28;20202;-85
2024/01/07 11:16:13;;;;;;;18.90;13.40;;;2.40;44.90;;;;;;4988384;28;20195;-85
2024/01/07 11:18:53;;;;;;;17.53;13.47;;;2.40;45.00;;;;;;5006211;28;20630;-85
2024/01/07 11:21:24;;;;;;;17.80;12.67;;;2.40;45.00;;;;;;5003882;28;20199;-84
2024/01/07 11:23:52;;;;;;;22.17;16.03;;;2.40;45.00;;;;;;4993448;28;20218;-84
2024/01/07 11:26:20;;;;;;;17.63;13.30;;;2.30;44.80;;;;;;4995268;28;20236;-84
2024/01/07 11:28:49;;;;;;;16.80;13.13;;;2.30;45.00;;;;;;4995908;28;20187;-84
2024/01/07 11:31:36;;;;;;;18.57;14.20;;;2.40;45.10;;;;;;5004186;28;20187;-84
2024/01/07 11:34:02;;;;;;;19.10;13.57;;;2.40;45.00;;;;;;4981994;28;20587;-85
2024/01/07 11:36:28;;;;;;;16.60;12.97;;;2.40;44.90;;;;;;4992520;28;20200;-85
2024/01/07 11:38:54;;;;;;;18.17;12.33;;;2.40;44.80;;;;;;4998372;28;20199;-84
2024/01/07 11:41:21;;;;;;;18.27;13.13;;;2.30;44.80;;;;;;4990701;28;20190;-85
2024/01/07 11:43:58;;;;;;;17.67;12.63;;;2.30;44.80;;;;;;4993599;28;20239;-84
2024/01/07 11:46:28;;;;;;;16.67;12.67;;;2.30;45.00;;;;;;5006119;28;20197;-85
2024/01/07 11:48:58;;;;;;;16.10;11.77;;;2.50;45.20;;;;;;4990593;28;20181;-83
2024/01/07 11:51:28;;;;;;;15.77;12.17;;;2.40;45.00;;;;;;4989683;28;20639;-85
2024/01/07 11:53:54;;;;;;;17.33;13.20;;;2.40;44.80;;;;;;4993140;28;20212;-84
2024/01/07 11:56:20;;;;;;;19.37;13.17;;;2.30;44.60;;;;;;5002693;28;20205;-85
2024/01/07 11:58:45;;;;;;;16.10;11.80;;;2.40;44.80;;;;;;4989318;28;20549;-83
2024/01/07 12:01:11;;;;;;;25.13;17.43;;;2.40;44.60;;;;;;4988267;28;20733;-84
2024/01/07 12:03:37;;;;;;;44.37;24.80;;;2.50;44.50;;;;;;5006441;28;20218;-84
2024/01/07 12:06:04;;;;;;;42.47;24.77;;;2.30;44.30;;;;;;5004593;28;20646;-83
2024/01/07 12:08:30;;;;;;;56.13;31.47;;;2.30;44.30;;;;;;4990480;28;20244;-83
2024/01/07 12:10:56;;;;;;;37.90;23.00;;;2.20;44.20;;;;;;4987928;28;20185;-83
2024/01/07 12:13:22;;;;;;;63.93;35.80;;;2.20;44.40;;;;;;5003296;28;20196;-84
2024/01/07 12:15:47;;;;;;;55.90;30.93;;;2.20;44.50;;;;;;5005942;28;20255;-84
2024/01/07 12:18:14;;;;;;;63.40;34.50;;;2.30;44.50;;;;;;4991310;28;20194;-84
2024/01/07 12:20:40;;;;;;;46.00;28.17;;;2.20;44.40;;;;;;5005591;28;20240;-84
2024/01/07 12:23:10;;;;;;;30.07;19.47;;;2.20;44.40;;;;;;4987064;28;20611;-84
2024/01/07 12:25:36;;;;;;;36.77;21.53;;;2.20;44.50;;;;;;5000421;28;20654;-83
2024/01/07 12:28:02;;;;;;;19.43;13.10;;;2.30;44.60;;;;;;4983967;28;20269;-83
2024/01/07 12:30:28;;;;;;;19.97;14.60;;;2.30;44.50;;;;;;4991047;28;20212;-85
2024/01/07 12:32:54;;;;;;;18.73;12.07;;;2.20;44.00;;;;;;4992553;28;20287;-83
2024/01/07 12:35:20;;;;;;;14.83;11.53;;;2.20;44.10;;;;;;4991050;28;20796;-84
2024/01/07 12:37:48;;;;;;;13.27;10.67;;;2.20;44.20;;;;;;5001487;28;20553;-86
2024/01/07 12:40:13;;;;;;;14.67;10.13;;;2.20;44.20;;;;;;4981768;28;20187;-85
2024/01/07 12:42:44;;;;;;;13.90;10.90;;;2.10;44.20;;;;;;4991017;28;20216;-85